Time;durP1;ratioP1;P1;durP2;ratioP2;P2;SDS_P1;SDS_P2;PMS_P1;PMS_P2;Temp;Humidity;BMP_temperature;BMP_pressure;BME280_temperature;BME280_humidity;BME280_pressure;Samples;Min_cycle;Max_cycle;Signal;HPM_P1;HPM_P2
2022/08/17 00:00:41;;;;;;;48.15;36.95;;;19.20;99.90;;;;;;5070049;28;20048;-66
2022/08/17 00:03:28;;;;;;;47.63;36.67;;;19.30;99.90;;;;;;5054960;28;20434;-66
2022/08/17 00:05:59;;;;;;;48.40;35.92;;;19.30;99.90;;;;;;5057480;28;20395;-66
2022/08/17 00:08:31;;;;;;;45.97;35.30;;;19.20;99.90;;;;;;5066923;28;21259;-66
2022/08/17 00:10:57;;;;;;;38.20;33.05;;;19.00;99.90;;;;;;5062794;28;20041;-66
2022/08/17 00:13:28;;;;;;;43.13;32.78;;;18.90;99.90;;;;;;5071767;28;20041;-66
2022/08/17 00:16:10;;;;;;;45.22;34.10;;;18.90;99.90;;;;;;5071993;28;20045;-66
2022/08/17 00:18:37;;;;;;;42.20;34.33;;;18.80;99.90;;;;;;5061379;28;20033;-67
2022/08/17 00:21:07;;;;;;;43.95;33.80;;;18.80;99.90;;;;;;5071364;28;20032;-67
2022/08/17 00:23:33;;;;;;;41.65;32.63;;;18.80;99.90;;;;;;5071416;28;20078;-67
2022/08/17 00:25:59;;;;;;;39.95;28.80;;;18.70;99.90;;;;;;5053846;28;20038;-67
2022/08/17 00:28:25;;;;;;;34.95;29.10;;;18.60;99.90;;;;;;5063556;28;20395;-67
2022/08/17 00:30:51;;;;;;;36.90;29.67;;;18.60;99.90;;;;;;5071061;28;20173;-67
2022/08/17 00:33:22;;;;;;;40.50;32.17;;;18.60;99.90;;;;;;5065656;28;20033;-67
2022/08/17 00:35:48;;;;;;;40.78;32.65;;;18.60;99.90;;;;;;5059484;28;20024;-67
2022/08/17 00:38:14;;;;;;;45.55;35.15;;;18.50;99.90;;;;;;5071272;28;20028;-67
2022/08/17 00:40:53;;;;;;;53.08;39.55;;;18.60;99.90;;;;;;5071196;28;20124;-67
2022/08/17 00:43:24;;;;;;;48.75;37.58;;;18.60;99.90;;;;;;5053469;28;20388;-67
2022/08/17 00:45:50;;;;;;;50.20;38.80;;;18.60;99.90;;;;;;5061999;28;20064;-67
2022/08/17 00:48:17;;;;;;;49.25;37.63;;;18.60;99.90;;;;;;5071186;28;20025;-67
2022/08/17 00:50:56;;;;;;;49.65;38.35;;;18.60;99.90;;;;;;5064216;28;20067;-67
2022/08/17 00:53:24;;;;;;;56.88;37.65;;;18.60;99.90;;;;;;5060085;28;20036;-67
2022/08/17 00:55:49;;;;;;;44.25;35.33;;;18.60;99.90;;;;;;5070898;28;20036;-67
2022/08/17 00:58:15;;;;;;;46.72;37.10;;;18.60;99.90;;;;;;5070990;28;20507;-67
2022/08/17 01:00:44;;;;;;;48.00;34.95;;;18.50;99.90;;;;;;5057546;28;20036;-67
2022/08/17 01:03:18;;;;;;;41.75;33.22;;;18.40;99.90;;;;;;5065618;28;20193;-67
2022/08/17 01:05:47;;;;;;;47.95;35.17;;;18.40;99.90;;;;;;5070744;28;20534;-67
2022/08/17 01:08:15;;;;;;;47.22;34.80;;;18.30;99.90;;;;;;5054309;28;20036;-67
2022/08/17 01:10:48;;;;;;;42.42;33.63;;;18.30;99.90;;;;;;5062439;28;20564;-67
2022/08/17 01:13:14;;;;;;;38.85;32.55;;;18.30;99.90;;;;;;5070618;28;20055;-67
2022/08/17 01:15:49;;;;;;;50.42;38.08;;;18.30;99.90;;;;;;5055203;28;20064;-67
2022/08/17 01:18:15;;;;;;;48.30;38.22;;;18.30;99.90;;;;;;5063891;28;20095;-67
2022/08/17 01:20:46;;;;;;;50.22;39.35;;;18.20;99.90;;;;;;5070061;28;20478;-67
2022/08/17 01:23:12;;;;;;;57.95;42.45;;;18.30;99.90;;;;;;5069378;28;20048;-67
2022/08/17 01:25:38;;;;;;;50.50;38.20;;;18.30;99.90;;;;;;5060428;28;20033;-67
2022/08/17 01:28:04;;;;;;;52.72;39.38;;;18.40;99.90;;;;;;5058216;28;20685;-67
2022/08/17 01:30:30;;;;;;;43.67;34.38;;;18.30;99.90;;;;;;5070135;28;20040;-67
2022/08/17 01:32:56;;;;;;;42.70;31.20;;;18.30;99.90;;;;;;5060898;28;20101;-67
2022/08/17 01:35:21;;;;;;;43.20;34.88;;;18.30;99.90;;;;;;5061104;28;20540;-67
2022/08/17 01:37:48;;;;;;;63.97;43.85;;;18.20;99.90;;;;;;5054136;28;20037;-67
2022/08/17 01:40:34;;;;;;;104.03;36.13;;;18.20;99.90;;;;;;5070754;28;20142;-67
2022/08/17 01:43:09;;;;;;;52.75;32.10;;;18.10;99.90;;;;;;5057425;28;20043;-67
2022/08/17 01:45:41;;;;;;;47.28;36.25;;;18.00;99.90;;;;;;5068147;28;20068;-67
2022/08/17 01:48:07;;;;;;;40.50;33.42;;;18.00;99.90;;;;;;5070679;28;20036;-67
2022/08/17 01:50:36;;;;;;;43.50;34.35;;;17.90;99.90;;;;;;5051314;28;20383;-67
2022/08/17 01:53:06;;;;;;;52.22;39.08;;;17.90;99.90;;;;;;5063501;28;20380;-67
2022/08/17 01:55:54;;;;;;;55.55;40.42;;;17.90;99.90;;;;;;5070294;28;20123;-66
2022/08/17 01:58:20;;;;;;;57.13;40.95;;;17.90;99.90;;;;;;5054616;28;20045;-66
2022/08/17 02:00:50;;;;;;;73.18;46.63;;;17.90;99.90;;;;;;5063610;28;20033;-67
2022/08/17 02:03:17;;;;;;;64.00;43.72;;;18.00;99.90;;;;;;5070469;28;20040;-67
2022/08/17 02:05:43;;;;;;;67.85;45.08;;;18.10;99.90;;;;;;5060148;28;20104;-67
2022/08/17 02:08:10;;;;;;;69.72;45.95;;;18.20;99.90;;;;;;5063099;28;20062;-67
2022/08/17 02:10:35;;;;;;;68.15;45.35;;;18.30;99.90;;;;;;5069774;28;20047;-67
2022/08/17 02:13:03;;;;;;;74.35;46.72;;;18.40;99.90;;;;;;5069828;28;20037;-67
2022/08/17 02:15:29;;;;;;;68.53;46.05;;;18.50;99.90;;;;;;5057022;28;20063;-67
2022/08/17 02:17:54;;;;;;;70.95;46.80;;;18.50;99.90;;;;;;5062616;28;20445;-67
2022/08/17 02:20:21;;;;;;;61.13;44.35;;;18.50;99.90;;;;;;5069969;28;20115;-67
2022/08/17 02:22:48;;;;;;;57.55;42.97;;;18.50;99.90;;;;;;5054477;28;20490;-67
2022/08/17 02:25:18;;;;;;;63.25;43.55;;;18.50;99.90;;;;;;5060779;28;20033;-67
2022/08/17 02:27:44;;;;;;;67.13;44.78;;;18.60;99.90;;;;;;5070129;28;20040;-67
2022/08/17 02:30:12;;;;;;;59.15;42.58;;;18.50;99.90;;;;;;5060951;28;20056;-67
2022/08/17 02:32:39;;;;;;;58.38;41.03;;;18.50;99.90;;;;;;5053058;28;20037;-67
2022/08/17 02:35:05;;;;;;;49.65;39.80;;;18.40;99.90;;;;;;5069706;28;20409;-67
2022/08/17 02:37:31;;;;;;;61.40;41.17;;;18.40;99.90;;;;;;5070185;28;20055;-67
2022/08/17 02:39:58;;;;;;;54.03;39.50;;;18.40;99.90;;;;;;5048413;28;20040;-67
2022/08/17 02:42:37;;;;;;;55.90;38.75;;;18.30;99.90;;;;;;5059047;28;20033;-67
2022/08/17 02:45:05;;;;;;;53.35;38.92;;;18.30;99.90;;;;;;5070001;28;20064;-67
2022/08/17 02:47:31;;;;;;;56.67;41.45;;;18.20;99.90;;;;;;5072134;28;20387;-67
2022/08/17 02:49:57;;;;;;;55.35;40.28;;;18.10;99.90;;;;;;5059376;28;20047;-67
2022/08/17 02:52:24;;;;;;;59.50;41.97;;;18.10;99.90;;;;;;5069243;28;20047;-67
2022/08/17 02:54:50;;;;;;;60.85;43.35;;;18.20;99.90;;;;;;5073454;28;20064;-67
2022/08/17 02:57:15;;;;;;;60.50;43.30;;;18.30;99.90;;;;;;5059444;28;20075;-67
2022/08/17 02:59:41;;;;;;;66.93;42.67;;;18.30;99.90;;;;;;5072092;28;20037;-67
2022/08/17 03:02:09;;;;;;;63.85;43.65;;;18.40;99.90;;;;;;5073272;28;20048;-67
2022/08/17 03:04:35;;;;;;;59.20;42.17;;;18.40;99.90;;;;;;5065052;28;20051;-67
2022/08/17 03:07:02;;;;;;;60.50;42.60;;;18.40;99.90;;;;;;5063101;28;20107;-67
2022/08/17 03:09:27;;;;;;;56.85;41.35;;;18.30;99.90;;;;;;5073217;28;20033;-67
2022/08/17 03:11:53;;;;;;;54.90;40.92;;;18.30;99.90;;;;;;5065320;28;21339;-67
2022/08/17 03:14:19;;;;;;;55.35;40.55;;;18.30;99.90;;;;;;5060410;28;20048;-67
2022/08/17 03:16:44;;;;;;;62.33;42.90;;;18.20;99.90;;;;;;5071786;28;20071;-67
2022/08/17 03:19:10;;;;;;;58.30;43.00;;;18.20;99.90;;;;;;5073105;28;20062;-67
2022/08/17 03:21:36;;;;;;;65.05;42.92;;;18.20;99.90;;;;;;5065946;28;20052;-67
2022/08/17 03:24:02;;;;;;;58.70;42.13;;;18.20;99.90;;;;;;5064693;28;20039;-67
2022/08/17 03:26:28;;;;;;;58.83;42.58;;;18.10;99.90;;;;;;5072633;28;20093;-67
2022/08/17 03:28:53;;;;;;;58.03;40.75;;;18.10;99.90;;;;;;5066789;28;20119;-67
2022/08/17 03:31:20;;;;;;;56.20;40.97;;;18.00;99.90;;;;;;5054436;28;20166;-66
2022/08/17 03:33:46;;;;;;;51.63;39.03;;;18.10;99.90;;;;;;5062433;28;20041;-67
2022/08/17 03:36:12;;;;;;;57.70;41.30;;;18.10;99.90;;;;;;5057785;28;20033;-67
2022/08/17 03:38:38;;;;;;;58.08;41.75;;;18.10;99.90;;;;;;5071145;28;20371;-67
2022/08/17 03:41:04;;;;;;;63.30;42.85;;;18.20;99.90;;;;;;5072388;28;20051;-67
2022/08/17 03:43:32;;;;;;;56.95;36.60;;;18.20;99.90;;;;;;5071479;28;20494;-67
2022/08/17 03:57:06;;;;;;;52.30;34.08;;;18.10;99.90;;;;;;5059585;28;20037;-67
2022/08/17 03:59:33;;;;;;;51.35;34.22;;;18.10;99.90;;;;;;5069620;28;20036;-67
2022/08/17 04:02:06;;;;;;;52.33;34.47;;;18.10;99.90;;;;;;5058948;28;20044;-66
2022/08/17 04:04:32;;;;;;;58.80;36.85;;;18.20;99.90;;;;;;5057464;28;20052;-67
2022/08/17 04:06:58;;;;;;;57.28;37.35;;;18.20;99.90;;;;;;5064382;28;20033;-67
2022/08/17 04:09:23;;;;;;;57.10;35.70;;;18.30;99.90;;;;;;5070529;28;20188;-67
2022/08/17 04:11:49;;;;;;;55.53;36.45;;;18.30;99.90;;;;;;5071870;28;20505;-67
2022/08/17 04:14:15;;;;;;;56.10;36.40;;;18.30;99.90;;;;;;5060093;28;20033;-67
2022/08/17 04:16:40;;;;;;;56.97;36.70;;;18.40;99.90;;;;;;5068253;28;20033;-67
2022/08/17 04:19:06;;;;;;;53.58;32.85;;;18.40;99.90;;;;;;5062413;28;20116;-67
2022/08/17 04:21:33;;;;;;;46.35;25.70;;;18.40;99.90;;;;;;5054994;28;20041;-67
2022/08/17 04:23:59;;;;;;;44.35;25.73;;;18.40;99.90;;;;;;5070940;28;20375;-67
2022/08/17 04:26:24;;;;;;;50.25;30.02;;;18.40;99.90;;;;;;5071670;28;20070;-67
2022/08/17 04:28:50;;;;;;;49.97;29.48;;;18.50;99.90;;;;;;5059598;28;20032;-67
2022/08/17 04:31:16;;;;;;;51.20;31.35;;;18.50;99.90;;;;;;5068978;28;20115;-67
2022/08/17 04:33:43;;;;;;;53.25;30.35;;;18.50;99.90;;;;;;5071511;28;20048;-67
2022/08/17 04:36:11;;;;;;;49.67;31.20;;;18.50;99.90;;;;;;5060462;28;20476;-67
2022/08/17 04:38:39;;;;;;;50.40;30.95;;;18.50;99.90;;;;;;5054265;28;20051;-67
2022/08/17 04:43:54;;;;;;;54.58;31.73;;;18.60;99.90;;;;;;5071394;28;20115;-67
2022/08/17 04:46:23;;;;;;;52.63;31.05;;;18.60;99.90;;;;;;5059329;28;20108;-67
2022/08/17 04:48:54;;;;;;;52.08;30.88;;;18.60;99.90;;;;;;5058976;28;20480;-67
2022/08/17 04:51:39;;;;;;;;;;;18.60;99.90;;;;;;5070150;28;20052;-67
2022/08/17 04:54:11;;;;;;;49.05;28.50;;;18.70;99.90;;;;;;5057761;28;19916;-67
2022/08/17 04:56:37;;;;;;;49.78;30.48;;;18.60;99.90;;;;;;5069416;28;20411;-67
2022/08/17 04:59:07;;;;;;;50.88;30.63;;;18.70;99.90;;;;;;5070994;28;20522;-67
2022/08/17 05:01:35;;;;;;;55.78;31.42;;;18.70;99.90;;;;;;5059173;28;20048;-67
2022/08/17 05:04:06;;;;;;;50.58;30.85;;;18.70;99.90;;;;;;5056141;28;20039;-67
2022/08/17 05:06:31;;;;;;;50.70;30.88;;;18.80;99.90;;;;;;5059176;28;20515;-67
2022/08/17 05:08:57;;;;;;;54.03;31.10;;;18.80;99.90;;;;;;5050452;28;20036;-67
2022/08/17 05:11:25;;;;;;;51.35;31.88;;;18.80;99.90;;;;;;5053071;28;20051;-67
2022/08/17 05:13:52;;;;;;;51.55;30.10;;;18.90;99.90;;;;;;5068956;28;20047;-67
2022/08/17 05:16:19;;;;;;;49.50;31.05;;;18.90;99.90;;;;;;5070782;28;20090;-67
2022/08/17 05:18:45;;;;;;;52.42;31.17;;;18.90;99.90;;;;;;5035679;28;20039;-67
2022/08/17 05:21:11;;;;;;;50.92;29.67;;;18.90;99.90;;;;;;5063283;28;20032;-67
2022/08/17 05:23:37;;;;;;;46.42;26.70;;;18.90;99.90;;;;;;5069064;28;20086;-67
2022/08/17 05:26:03;;;;;;;47.53;25.80;;;19.00;99.90;;;;;;5060895;28;20025;-67
2022/08/17 05:28:30;;;;;;;47.63;27.65;;;18.90;99.90;;;;;;5066096;28;20035;-67
2022/08/17 05:30:58;;;;;;;50.47;28.80;;;18.90;99.90;;;;;;5068833;28;20058;-67
2022/08/17 05:33:30;;;;;;;47.97;29.88;;;19.00;99.90;;;;;;5062834;28;20076;-67
2022/08/17 05:35:57;;;;;;;50.35;25.15;;;19.00;99.90;;;;;;5058747;28;20505;-67
2022/08/17 05:38:25;;;;;;;43.75;24.00;;;19.00;99.90;;;;;;5067405;28;20039;-67
2022/08/17 05:40:52;;;;;;;46.97;28.13;;;19.00;99.90;;;;;;5067418;28;20130;-67
2022/08/17 05:43:27;;;;;;;50.45;28.15;;;19.00;99.90;;;;;;5053030;28;20037;-67
2022/08/17 05:46:27;;;;;;;53.22;29.40;;;19.00;99.90;;;;;;5055644;28;20044;-67
2022/08/17 05:48:57;;;;;;;46.10;26.52;;;19.00;99.90;;;;;;5034394;28;20052;-67
2022/08/17 05:51:48;;;;;;;53.75;29.90;;;19.10;99.90;;;;;;5060860;28;20430;-67
2022/08/17 05:54:38;;;;;;;53.55;30.30;;;19.10;99.90;;;;;;5057948;28;20102;-67
2022/08/17 05:57:41;;;;;;;56.13;31.05;;;19.10;99.90;;;;;;5055450;28;20041;-64
2022/08/17 06:00:26;;;;;;;44.40;19.40;;;19.20;99.90;;;;;;5022330;28;20045;-63
2022/08/17 06:03:03;;;;;;;44.60;21.67;;;19.20;99.90;;;;;;5054702;28;20041;-64
2022/08/17 06:06:00;;;;;;;45.63;23.27;;;19.20;99.90;;;;;;5067207;28;20044;-63
2022/08/17 06:08:51;;;;;;;49.85;24.88;;;19.30;99.90;;;;;;5057246;28;20098;-63
2022/08/17 06:11:44;;;;;;;49.75;24.27;;;19.30;99.90;;;;;;5051595;28;20138;-64
2022/08/17 06:14:21;;;;;;;45.25;24.35;;;19.30;99.90;;;;;;5056544;28;20410;-64
2022/08/17 06:16:55;;;;;;;49.05;24.45;;;19.30;99.90;;;;;;5105972;22;20326;-63
2022/08/17 06:19:44;;;;;;;49.95;26.15;;;19.40;99.90;;;;;;5069484;28;20554;-64
2022/08/17 06:22:15;;;;;;;49.92;24.83;;;19.40;99.90;;;;;;5063250;28;20090;-64
2022/08/17 06:24:48;;;;;;;45.28;24.17;;;19.40;99.90;;;;;;5077870;28;20083;-63
2022/08/17 06:27:35;;;;;;;44.03;25.45;;;19.50;99.90;;;;;;5082012;28;20054;-64
2022/08/17 06:30:12;;;;;;;48.85;28.65;;;19.60;99.90;;;;;;5078163;28;20048;-64
2022/08/17 06:32:41;;;;;;;46.08;26.67;;;19.70;99.90;;;;;;5084434;28;20119;-65
2022/08/17 06:35:10;;;;;;;44.13;26.00;;;19.90;99.90;;;;;;5072392;28;20044;-65
2022/08/17 06:37:54;;;;;;;48.13;25.45;;;20.00;99.90;;;;;;5091380;28;20042;-66
2022/08/17 06:40:28;;;;;;;46.55;25.10;;;20.10;99.90;;;;;;5094063;28;20752;-67
2022/08/17 06:42:54;;;;;;;40.22;23.63;;;20.20;99.90;;;;;;5082734;28;20041;-66
2022/08/17 06:45:28;;;;;;;43.65;24.30;;;20.30;99.90;;;;;;5084970;28;20028;-66
2022/08/17 06:48:23;;;;;;;42.78;23.98;;;20.40;99.90;;;;;;5078607;28;20047;-66
2022/08/17 06:50:58;;;;;;;39.30;23.38;;;20.50;99.90;;;;;;5073666;28;20095;-65
2022/08/17 06:53:46;;;;;;;40.63;22.15;;;20.60;99.90;;;;;;5087543;28;20070;-65
2022/08/17 06:56:20;;;;;;;36.53;22.08;;;20.80;99.90;;;;;;5093465;28;20490;-66
2022/08/17 06:58:47;;;;;;;39.65;22.75;;;20.90;99.90;;;;;;5079246;28;20068;-66
2022/08/17 07:01:28;;;;;;;36.67;22.60;;;21.00;99.90;;;;;;5065957;28;20044;-66
2022/08/17 07:04:20;;;;;;;34.00;20.85;;;21.20;99.90;;;;;;5069678;28;20040;-65
2022/08/17 07:06:57;;;;;;;36.45;22.30;;;21.20;99.90;;;;;;5075989;28;20083;-66
2022/08/17 07:09:34;;;;;;;39.28;25.40;;;21.20;99.90;;;;;;5075421;28;20047;-66
2022/08/17 07:12:21;;;;;;;35.28;23.13;;;21.20;99.90;;;;;;5092924;28;20035;-67
2022/08/17 07:14:59;;;;;;;36.20;24.38;;;21.20;99.90;;;;;;5070448;28;20032;-66
2022/08/17 07:17:26;;;;;;;36.42;22.83;;;21.20;99.90;;;;;;5074026;28;20047;-66
2022/08/17 07:20:04;;;;;;;34.88;22.42;;;21.20;99.90;;;;;;5082957;28;20046;-66
2022/08/17 07:22:58;;;;;;;39.70;21.73;;;21.30;99.90;;;;;;5086932;28;20036;-66
2022/08/17 07:25:24;;;;;;;39.47;21.70;;;21.40;99.90;;;;;;5078439;28;20549;-66
2022/08/17 07:27:53;;;;;;;39.65;21.17;;;21.40;99.90;;;;;;5091216;28;20042;-66
2022/08/17 07:30:52;;;;;;;32.13;20.95;;;21.50;99.90;;;;;;5088467;28;20174;-66
2022/08/17 07:33:24;;;;;;;38.15;22.50;;;21.60;99.90;;;;;;5072663;28;20093;-66
2022/08/17 07:35:50;;;;;;;33.08;20.08;;;21.80;99.90;;;;;;5092407;28;20160;-66
2022/08/17 07:38:23;;;;;;;37.28;21.17;;;21.80;99.90;;;;;;5091946;28;20048;-66
2022/08/17 07:41:01;;;;;;;36.50;21.55;;;22.00;99.90;;;;;;5058312;28;20043;-66
2022/08/17 07:43:30;;;;;;;34.95;20.10;;;22.10;99.90;;;;;;5085318;28;20115;-71
2022/08/17 07:48:50;;;;;;;32.22;20.35;;;22.10;99.90;;;;;;5091890;28;20036;-67
2022/08/17 07:51:26;;;;;;;35.88;21.30;;;22.10;99.90;;;;;;5092295;28;20546;-66
2022/08/17 07:53:54;;;;;;;32.55;19.00;;;22.10;99.90;;;;;;5078704;28;20044;-67
2022/08/17 07:56:35;;;;;;;34.13;19.83;;;22.10;99.90;;;;;;5060620;28;20086;-67
2022/08/17 07:59:06;;;;;;;31.27;18.98;;;22.10;99.90;;;;;;5068480;28;20040;-67
2022/08/17 08:01:36;;;;;;;29.48;19.38;;;22.20;99.90;;;;;;5091955;28;20077;-66
2022/08/17 08:04:36;;;;;;;31.35;18.90;;;22.30;99.90;;;;;;5082817;28;20036;-66
2022/08/17 08:07:11;;;;;;;28.67;17.42;;;22.30;99.90;;;;;;5078610;28;20063;-66
2022/08/17 08:09:43;;;;;;;30.77;18.40;;;22.50;99.90;;;;;;5065383;28;20039;-67
2022/08/17 08:12:39;;;;;;;31.65;19.08;;;22.60;99.90;;;;;;5060831;28;20037;-66
2022/08/17 08:15:15;;;;;;;32.88;18.73;;;22.60;99.90;;;;;;5066034;28;20079;-66
2022/08/17 08:17:45;;;;;;;28.77;17.75;;;22.70;99.90;;;;;;5089539;28;20076;-66
2022/08/17 08:20:11;;;;;;;29.07;18.33;;;22.60;99.90;;;;;;5091713;28;20036;-66
2022/08/17 08:23:02;;;;;;;27.30;16.45;;;22.60;99.90;;;;;;5078677;28;20426;-67
2022/08/17 08:25:39;;;;;;;29.45;18.35;;;22.50;99.90;;;;;;5089560;28;20036;-67
2022/08/17 08:28:12;;;;;;;27.92;17.45;;;22.40;99.90;;;;;;5092331;28;20040;-66
2022/08/17 08:30:45;;;;;;;29.23;17.83;;;22.40;99.90;;;;;;5067450;28;20048;-66
2022/08/17 08:33:20;;;;;;;30.15;19.40;;;22.40;99.90;;;;;;5086012;28;20111;-67
2022/08/17 08:35:52;;;;;;;34.80;20.75;;;22.30;99.90;;;;;;5091571;28;20406;-68
2022/08/17 08:38:24;;;;;;;31.92;19.58;;;22.30;99.90;;;;;;5079742;28;20068;-67
2022/08/17 08:41:20;;;;;;;30.05;18.95;;;22.20;99.90;;;;;;5069303;28;20044;-67
2022/08/17 08:43:48;;;;;;;30.90;18.25;;;22.20;99.90;;;;;;5091350;28;20039;-67
2022/08/17 08:46:45;;;;;;;31.05;18.88;;;22.20;99.90;;;;;;5074610;28;20033;-67
2022/08/17 08:49:30;;;;;;;29.48;18.50;;;22.30;99.90;;;;;;5073207;28;20069;-67
2022/08/17 08:51:59;;;;;;;34.55;20.20;;;22.40;99.90;;;;;;5076509;28;20561;-67
2022/08/17 08:54:46;;;;;;;32.30;19.48;;;22.50;99.90;;;;;;5091577;28;20047;-68
2022/08/17 08:57:20;;;;;;;32.08;19.60;;;22.60;99.90;;;;;;5067747;28;20474;-68
2022/08/17 09:00:11;;;;;;;31.75;18.98;;;22.80;99.90;;;;;;5090568;28;20542;-68
2022/08/17 09:03:20;;;;;;;28.52;18.80;;;22.90;99.90;;;;;;5086813;28;20083;-67
2022/08/17 09:06:10;;;;;;;33.33;18.65;;;22.90;99.90;;;;;;5075467;28;20071;-66
2022/08/17 09:08:54;;;;;;;32.58;18.38;;;22.90;99.90;;;;;;5090683;28;20424;-66
2022/08/17 09:11:43;;;;;;;30.77;18.33;;;22.90;99.90;;;;;;5090918;28;20111;-66
2022/08/17 09:14:30;;;;;;;28.52;18.33;;;22.90;99.90;;;;;;5075734;28;20032;-66
2022/08/17 09:17:17;;;;;;;29.40;18.17;;;23.00;99.90;;;;;;5075698;28;20024;-66
2022/08/17 09:20:01;;;;;;;34.13;16.77;;;23.00;99.90;;;;;;5078633;28;20084;-66
2022/08/17 09:22:41;;;;;;;29.52;18.55;;;23.00;99.90;;;;;;5086131;28;20077;-66
2022/08/17 09:25:20;;;;;;;27.85;18.92;;;23.10;99.90;;;;;;5091040;28;20036;-66
2022/08/17 09:27:58;;;;;;;28.13;17.77;;;23.30;99.90;;;;;;5090874;28;20036;-66
2022/08/17 09:30:28;;;;;;;28.20;18.40;;;23.50;99.90;;;;;;5064934;28;20052;-65
2022/08/17 09:33:00;;;;;;;28.48;18.20;;;23.60;99.90;;;;;;5090368;28;20036;-65
2022/08/17 09:35:38;;;;;;;28.77;19.08;;;23.70;99.90;;;;;;5091018;28;20054;-65
2022/08/17 09:38:22;;;;;;;27.60;18.63;;;23.90;99.90;;;;;;5073026;28;20040;-65
2022/08/17 09:41:07;;;;;;;26.65;17.35;;;24.20;99.90;;;;;;5078278;28;20079;-65
2022/08/17 09:43:58;;;;;;;27.65;19.02;;;24.50;99.90;;;;;;5087970;28;20044;-65
2022/08/17 09:46:39;;;;;;;26.90;18.25;;;24.60;99.90;;;;;;5075747;28;20043;-65
2022/08/17 09:49:39;;;;;;;23.30;18.90;;;24.70;99.90;;;;;;5046381;28;20487;-65
2022/08/17 09:52:15;;;;;;;24.30;17.60;;;24.70;99.90;;;;;;5049785;28;20097;-65
2022/08/17 09:54:43;;;;;;;23.08;17.08;;;24.80;99.90;;;;;;5053664;28;20451;-65
2022/08/17 09:57:21;;;;;;;22.08;16.55;;;24.70;99.90;;;;;;5078393;28;20043;-65
2022/08/17 09:59:59;;;;;;;23.50;16.77;;;24.60;99.90;;;;;;5085875;28;20409;-65
2022/08/17 10:02:44;;;;;;;20.58;16.05;;;24.50;99.90;;;;;;5078600;28;20040;-64
2022/08/17 10:05:16;;;;;;;20.27;16.05;;;24.60;99.90;;;;;;5071220;28;20040;-66
2022/08/17 10:08:00;;;;;;;19.95;16.58;;;24.50;99.90;;;;;;5085569;28;20044;-65
2022/08/17 10:10:44;;;;;;;21.98;15.35;;;24.50;99.90;;;;;;5065607;28;20075;-65
2022/08/17 10:13:32;;;;;;;21.15;15.95;;;24.50;99.90;;;;;;5084484;28;20051;-65
2022/08/17 10:16:19;;;;;;;23.23;15.68;;;24.50;99.90;;;;;;5046472;28;20503;-65
2022/08/17 10:19:21;;;;;;;23.27;15.85;;;24.40;99.90;;;;;;5067602;28;20044;-65
2022/08/17 10:27:39;;;;;;;17.83;14.00;;;24.60;99.90;;;;;;5052782;28;20041;-65
2022/08/17 10:30:08;;;;;;;18.30;15.00;;;24.70;99.90;;;;;;5073442;28;20036;-65
2022/08/17 10:32:43;;;;;;;19.77;15.30;;;25.00;99.90;;;;;;5089635;28;20044;-66
2022/08/17 10:35:09;;;;;;;20.67;15.05;;;25.10;99.90;;;;;;5078234;28;20511;-65
2022/08/17 10:38:05;;;;;;;22.75;16.00;;;25.20;99.90;;;;;;5061434;28;20067;-65
2022/08/17 10:40:45;;;;;;;22.30;15.68;;;25.30;99.90;;;;;;5087246;28;20040;-65
2022/08/17 10:43:45;;;;;;;18.80;15.45;;;25.50;99.90;;;;;;5078109;28;20036;-65
2022/08/17 10:46:32;;;;;;;22.23;15.68;;;25.70;99.90;;;;;;5072985;28;20043;-65
2022/08/17 10:49:16;;;;;;;20.20;15.85;;;25.90;99.90;;;;;;5069428;28;20112;-65
2022/08/17 10:51:46;;;;;;;20.55;15.98;;;25.90;99.90;;;;;;5066307;28;20144;-65
2022/08/17 10:54:24;;;;;;;23.42;16.13;;;25.90;99.90;;;;;;5086524;28;20040;-65
2022/08/17 10:56:52;;;;;;;21.15;15.55;;;25.90;99.90;;;;;;5078222;28;20059;-65
2022/08/17 10:59:33;;;;;;;19.92;15.70;;;25.70;99.90;;;;;;5085831;28;20036;-65
2022/08/17 11:02:05;;;;;;;20.88;16.67;;;25.70;99.90;;;;;;5074353;28;20032;-65
2022/08/17 11:04:39;;;;;;;22.55;17.02;;;25.60;99.90;;;;;;5087338;28;20065;-65
2022/08/17 11:07:33;;;;;;;21.30;16.35;;;25.30;99.90;;;;;;5090186;28;20036;-65
2022/08/17 11:10:20;;;;;;;22.88;16.17;;;25.40;99.90;;;;;;5065125;28;20063;-65
2022/08/17 11:13:10;;;;;;;22.52;16.25;;;25.60;99.90;;;;;;5092668;28;20081;-66
2022/08/17 11:15:36;;;;;;;21.92;16.27;;;25.70;99.90;;;;;;5093420;28;20044;-66
2022/08/17 11:18:01;;;;;;;25.30;17.42;;;25.80;99.90;;;;;;5079286;28;20575;-66
2022/08/17 11:20:42;;;;;;;21.00;16.55;;;25.80;99.90;;;;;;5081882;28;20048;-66
2022/08/17 11:23:37;;;;;;;21.27;16.25;;;25.90;99.90;;;;;;5079916;28;20032;-66
2022/08/17 11:26:28;;;;;;;20.30;15.40;;;25.80;99.90;;;;;;5080510;28;20032;-65
2022/08/17 11:29:00;;;;;;;23.08;14.88;;;25.90;99.90;;;;;;5092849;28;20036;-65
2022/08/17 11:31:39;;;;;;;27.08;18.75;;;25.80;99.90;;;;;;5076683;28;20032;-66
2022/08/17 11:34:20;;;;;;;27.13;18.60;;;25.50;99.90;;;;;;5060420;28;20059;-66
2022/08/17 11:37:24;;;;;;;26.63;18.97;;;25.40;99.90;;;;;;5085485;28;20036;-66
2022/08/17 11:40:26;;;;;;;30.92;18.77;;;25.20;99.90;;;;;;5052725;28;20303;-66
2022/08/17 11:43:02;;;;;;;24.75;18.63;;;25.00;99.90;;;;;;5044711;28;20044;-67
2022/08/17 11:46:12;;;;;;;31.52;19.52;;;25.00;99.90;;;;;;5086658;28;20094;-65
2022/08/17 11:51:59;;;;;;;27.90;20.17;;;24.90;99.90;;;;;;5077586;28;20480;-65
2022/08/17 11:54:42;;;;;;;30.02;19.70;;;24.90;99.90;;;;;;5080434;28;20130;-65
2022/08/17 11:57:26;;;;;;;30.17;20.85;;;24.90;99.90;;;;;;5079793;28;20040;-66
2022/08/17 11:59:59;;;;;;;26.40;19.60;;;24.90;99.90;;;;;;5076722;28;20540;-65
2022/08/17 12:02:30;;;;;;;27.08;19.88;;;25.00;99.90;;;;;;5092278;28;20043;-66
2022/08/17 12:05:01;;;;;;;;;;;25.10;99.90;;;;;;5078988;28;20032;-66
2022/08/17 12:07:31;;;;;;;30.23;21.52;;;25.10;99.90;;;;;;5070511;28;19916;-66
2022/08/17 12:09:59;;;;;;;34.53;21.77;;;25.20;99.90;;;;;;5084136;28;20077;-68
2022/08/17 12:12:34;;;;;;;28.63;21.85;;;25.20;99.90;;;;;;5091987;28;20410;-66
2022/08/17 12:17:37;;;;;;;31.45;23.27;;;25.30;99.90;;;;;;5056417;28;20049;-67
2022/08/17 12:20:26;;;;;;;31.45;22.77;;;25.30;99.90;;;;;;5070687;28;20040;-67
2022/08/17 12:22:56;;;;;;;35.45;23.13;;;25.20;99.90;;;;;;5049338;28;20044;-67
2022/08/17 12:25:48;;;;;;;30.25;22.42;;;25.20;99.90;;;;;;5058645;28;20535;-66
2022/08/17 12:28:29;;;;;;;31.60;22.92;;;25.10;99.90;;;;;;5066691;28;20389;-66
2022/08/17 12:31:01;;;;;;;35.83;24.60;;;25.00;99.90;;;;;;5071325;28;20056;-66
2022/08/17 12:33:27;;;;;;;32.92;23.75;;;25.00;99.90;;;;;;5067115;28;20048;-67
2022/08/17 12:36:05;;;;;;;39.05;24.92;;;25.00;99.90;;;;;;5070930;28;20660;-67
2022/08/17 12:38:33;;;;;;;35.75;24.38;;;25.10;99.90;;;;;;5071459;28;20040;-66
2022/08/17 12:41:24;;;;;;;35.42;25.00;;;25.10;99.90;;;;;;5062994;28;20052;-67
2022/08/17 12:44:02;;;;;;;39.33;27.77;;;25.20;99.90;;;;;;5070145;28;20032;-67
2022/08/17 12:46:43;;;;;;;36.47;25.90;;;25.30;99.90;;;;;;5071759;28;20099;-67
2022/08/17 12:49:31;;;;;;;41.25;27.55;;;25.30;99.90;;;;;;5067811;28;20059;-67
2022/08/17 12:52:18;;;;;;;39.50;26.15;;;25.30;99.90;;;;;;5062010;28;20532;-67
2022/08/17 12:55:01;;;;;;;40.20;28.42;;;25.40;99.90;;;;;;5069993;28;20582;-67
2022/08/17 12:57:33;;;;;;;41.83;29.38;;;25.50;99.90;;;;;;5062819;28;20032;-67
2022/08/17 13:00:20;;;;;;;39.40;28.85;;;25.50;99.90;;;;;;5067111;28;20045;-67
2022/08/17 13:03:04;;;;;;;43.58;29.50;;;25.40;99.90;;;;;;5070340;28;20390;-67
2022/08/17 13:05:36;;;;;;;43.97;30.48;;;25.40;99.90;;;;;;5066521;28;20090;-67
2022/08/17 13:08:22;;;;;;;43.50;30.42;;;25.30;99.90;;;;;;5062843;28;20036;-67
2022/08/17 13:11:15;;;;;;;44.63;31.05;;;25.30;99.90;;;;;;5070404;28;20045;-67
2022/08/17 13:13:43;;;;;;;44.50;30.73;;;25.20;99.90;;;;;;5060500;28;20067;-67
2022/08/17 13:16:22;;;;;;;45.15;31.08;;;25.10;99.90;;;;;;5065481;28;20044;-67
2022/08/17 13:18:52;;;;;;;43.05;31.02;;;25.00;99.90;;;;;;5070465;28;20036;-67
2022/08/17 13:21:18;;;;;;;44.58;30.48;;;24.90;99.90;;;;;;5070643;28;20060;-67
2022/08/17 13:24:26;;;;;;;42.33;30.50;;;24.80;99.90;;;;;;5058496;28;20056;-67
2022/08/17 13:27:00;;;;;;;43.25;30.33;;;24.70;99.90;;;;;;5054980;28;20134;-67
2022/08/17 13:29:33;;;;;;;49.17;37.55;;;24.60;99.90;;;;;;5061613;28;20036;-67
2022/08/17 13:32:05;;;;;;;47.50;30.60;;;24.60;99.90;;;;;;5060351;28;20498;-67
2022/08/17 13:34:39;;;;;;;43.03;31.48;;;24.60;99.90;;;;;;5068980;28;20055;-67